sensor_id;sensor_type;location;lat;lon;timestamp;P1;durP1;ratioP1;P2;durP2;ratioP2
21731;SDS011;11028;51.156;17.130;2023-02-04T00:01:40;4.95;;;1.77;;
21731;SDS011;11028;51.156;17.130;2023-02-04T00:09:00;2.85;;;1.60;;
21731;SDS011;11028;51.156;17.130;2023-02-04T00:16:18;1.52;;;0.93;;
21731;SDS011;11028;51.156;17.130;2023-02-04T00:23:37;4.78;;;1.48;;
21731;SDS011;11028;51.156;17.130;2023-02-04T00:30:57;2.08;;;1.50;;
21731;SDS011;11028;51.156;17.130;2023-02-04T00:38:15;1.50;;;1.35;;
21731;SDS011;11028;51.156;17.130;2023-02-04T00:45:33;2.10;;;1.60;;
21731;SDS011;11028;51.156;17.130;2023-02-04T00:52:53;3.63;;;1.50;;
21731;SDS011;11028;51.156;17.130;2023-02-04T01:00:12;2.20;;;1.60;;
21731;SDS011;11028;51.156;17.130;2023-02-04T01:07:32;2.47;;;1.63;;
21731;SDS011;11028;51.156;17.130;2023-02-04T01:14:52;2.38;;;1.70;;
21731;SDS011;11028;51.156;17.130;2023-02-04T01:22:10;4.78;;;1.95;;
21731;SDS011;11028;51.156;17.130;2023-02-04T01:29:28;2.28;;;1.95;;
21731;SDS011;11028;51.156;17.130;2023-02-04T01:36:48;5.43;;;3.22;;
21731;SDS011;11028;51.156;17.130;2023-02-04T01:44:06;13.73;;;8.98;;
21731;SDS011;11028;51.156;17.130;2023-02-04T01:51:25;15.80;;;9.13;;
21731;SDS011;11028;51.156;17.130;2023-02-04T01:58:47;22.00;;;13.30;;
21731;SDS011;11028;51.156;17.130;2023-02-04T02:06:06;22.42;;;12.65;;
21731;SDS011;11028;51.156;17.130;2023-02-04T02:13:26;20.27;;;11.80;;
21731;SDS011;11028;51.156;17.130;2023-02-04T02:20:45;16.23;;;9.77;;
21731;SDS011;11028;51.156;17.130;2023-02-04T02:28:06;12.15;;;7.57;;
21731;SDS011;11028;51.156;17.130;2023-02-04T02:35:28;10.40;;;7.03;;
21731;SDS011;11028;51.156;17.130;2023-02-04T02:42:47;11.40;;;7.22;;
21731;SDS011;11028;51.156;17.130;2023-02-04T02:50:11;11.57;;;6.17;;
21731;SDS011;11028;51.156;17.130;2023-02-04T02:57:33;11.02;;;6.38;;
21731;SDS011;11028;51.156;17.130;2023-02-04T03:04:52;9.77;;;5.97;;
21731;SDS011;11028;51.156;17.130;2023-02-04T03:12:18;5.40;;;3.63;;
21731;SDS011;11028;51.156;17.130;2023-02-04T03:19:37;3.47;;;2.88;;
21731;SDS011;11028;51.156;17.130;2023-02-04T03:26:55;4.05;;;2.60;;
21731;SDS011;11028;51.156;17.130;2023-02-04T03:34:16;5.53;;;2.50;;
21731;SDS011;11028;51.156;17.130;2023-02-04T03:41:34;7.38;;;2.80;;
21731;SDS011;11028;51.156;17.130;2023-02-04T03:48:52;3.47;;;2.72;;
21731;SDS011;11028;51.156;17.130;2023-02-04T03:56:12;6.63;;;3.65;;
21731;SDS011;11028;51.156;17.130;2023-02-04T04:03:30;7.03;;;4.50;;
21731;SDS011;11028;51.156;17.130;2023-02-04T04:10:49;6.25;;;4.32;;
21731;SDS011;11028;51.156;17.130;2023-02-04T04:18:08;9.13;;;5.15;;
21731;SDS011;11028;51.156;17.130;2023-02-04T04:25:26;7.45;;;4.45;;
21731;SDS011;11028;51.156;17.130;2023-02-04T04:32:46;7.78;;;4.72;;
21731;SDS011;11028;51.156;17.130;2023-02-04T04:40:07;6.13;;;4.32;;
21731;SDS011;11028;51.156;17.130;2023-02-04T04:47:27;7.03;;;5.07;;
21731;SDS011;11028;51.156;17.130;2023-02-04T04:54:45;7.93;;;4.90;;
21731;SDS011;11028;51.156;17.130;2023-02-04T05:02:05;7.60;;;5.07;;
21731;SDS011;11028;51.156;17.130;2023-02-04T05:09:23;8.55;;;5.72;;
21731;SDS011;11028;51.156;17.130;2023-02-04T05:16:42;7.50;;;5.85;;
21731;SDS011;11028;51.156;17.130;2023-02-04T05:24:02;10.18;;;6.25;;
21731;SDS011;11028;51.156;17.130;2023-02-04T05:31:21;9.25;;;5.75;;
21731;SDS011;11028;51.156;17.130;2023-02-04T05:38:40;8.18;;;5.07;;
21731;SDS011;11028;51.156;17.130;2023-02-04T05:46:00;13.52;;;7.55;;
21731;SDS011;11028;51.156;17.130;2023-02-04T05:53:18;11.93;;;6.78;;
21731;SDS011;11028;51.156;17.130;2023-02-04T06:00:37;10.23;;;7.45;;
21731;SDS011;11028;51.156;17.130;2023-02-04T06:07:56;11.80;;;6.45;;
21731;SDS011;11028;51.156;17.130;2023-02-04T06:15:15;13.02;;;7.22;;
21731;SDS011;11028;51.156;17.130;2023-02-04T06:22:33;10.23;;;7.38;;
21731;SDS011;11028;51.156;17.130;2023-02-04T06:29:53;14.77;;;8.07;;
21731;SDS011;11028;51.156;17.130;2023-02-04T06:37:12;12.10;;;8.10;;
21731;SDS011;11028;51.156;17.130;2023-02-04T06:44:32;8.40;;;4.60;;
21731;SDS011;11028;51.156;17.130;2023-02-04T06:51:52;11.02;;;6.53;;
21731;SDS011;11028;51.156;17.130;2023-02-04T06:59:10;11.50;;;5.65;;
21731;SDS011;11028;51.156;17.130;2023-02-04T07:06:29;10.73;;;5.38;;
21731;SDS011;11028;51.156;17.130;2023-02-04T07:13:48;8.75;;;5.30;;
21731;SDS011;11028;51.156;17.130;2023-02-04T07:21:06;14.38;;;6.22;;
21731;SDS011;11028;51.156;17.130;2023-02-04T07:28:25;7.80;;;4.30;;
21731;SDS011;11028;51.156;17.130;2023-02-04T07:35:44;7.93;;;4.35;;
21731;SDS011;11028;51.156;17.130;2023-02-04T07:43:03;7.13;;;3.63;;
21731;SDS011;11028;51.156;17.130;2023-02-04T07:50:22;11.70;;;5.50;;
21731;SDS011;11028;51.156;17.130;2023-02-04T07:57:42;18.55;;;9.43;;
21731;SDS011;11028;51.156;17.130;2023-02-04T08:05:00;9.63;;;5.20;;
21731;SDS011;11028;51.156;17.130;2023-02-04T08:12:18;11.77;;;6.78;;
21731;SDS011;11028;51.156;17.130;2023-02-04T08:19:38;6.20;;;3.90;;
21731;SDS011;11028;51.156;17.130;2023-02-04T08:26:56;7.32;;;3.88;;
21731;SDS011;11028;51.156;17.130;2023-02-04T08:34:14;8.38;;;3.78;;
21731;SDS011;11028;51.156;17.130;2023-02-04T08:41:34;7.45;;;3.80;;
21731;SDS011;11028;51.156;17.130;2023-02-04T08:48:53;7.10;;;3.80;;
21731;SDS011;11028;51.156;17.130;2023-02-04T08:56:11;5.07;;;2.90;;
21731;SDS011;11028;51.156;17.130;2023-02-04T09:03:33;5.70;;;3.25;;
21731;SDS011;11028;51.156;17.130;2023-02-04T09:10:51;16.70;;;7.18;;
21731;SDS011;11028;51.156;17.130;2023-02-04T09:18:10;8.60;;;4.40;;
21731;SDS011;11028;51.156;17.130;2023-02-04T09:25:33;13.50;;;5.13;;
21731;SDS011;11028;51.156;17.130;2023-02-04T09:32:51;8.20;;;4.05;;
21731;SDS011;11028;51.156;17.130;2023-02-04T09:40:12;7.15;;;3.92;;
21731;SDS011;11028;51.156;17.130;2023-02-04T09:47:34;8.07;;;3.70;;
21731;SDS011;11028;51.156;17.130;2023-02-04T09:54:53;15.02;;;4.97;;
21731;SDS011;11028;51.156;17.130;2023-02-04T10:02:16;9.73;;;4.07;;
21731;SDS011;11028;51.156;17.130;2023-02-04T10:09:39;7.97;;;4.43;;
21731;SDS011;11028;51.156;17.130;2023-02-04T10:16:58;13.80;;;6.32;;
21731;SDS011;11028;51.156;17.130;2023-02-04T10:24:17;10.68;;;4.80;;
21731;SDS011;11028;51.156;17.130;2023-02-04T10:31:39;10.35;;;3.88;;
21731;SDS011;11028;51.156;17.130;2023-02-04T10:38:59;11.05;;;4.63;;
21731;SDS011;11028;51.156;17.130;2023-02-04T10:46:18;22.92;;;8.55;;
21731;SDS011;11028;51.156;17.130;2023-02-04T10:53:38;16.75;;;6.22;;
21731;SDS011;11028;51.156;17.130;2023-02-04T11:01:14;7.47;;;3.67;;
21731;SDS011;11028;51.156;17.130;2023-02-04T11:08:33;7.40;;;4.03;;
21731;SDS011;11028;51.156;17.130;2023-02-04T11:16:06;8.13;;;3.50;;
21731;SDS011;11028;51.156;17.130;2023-02-04T11:23:33;9.50;;;3.80;;
21731;SDS011;11028;51.156;17.130;2023-02-04T11:30:59;7.68;;;3.08;;
21731;SDS011;11028;51.156;17.130;2023-02-04T11:38:21;6.65;;;2.70;;
21731;SDS011;11028;51.156;17.130;2023-02-04T11:45:42;9.10;;;2.67;;
21731;SDS011;11028;51.156;17.130;2023-02-04T11:53:02;7.18;;;2.65;;
21731;SDS011;11028;51.156;17.130;2023-02-04T12:00:21;5.90;;;2.20;;
21731;SDS011;11028;51.156;17.130;2023-02-04T12:07:40;5.93;;;3.03;;
21731;SDS011;11028;51.156;17.130;2023-02-04T12:15:08;6.28;;;3.38;;
21731;SDS011;11028;51.156;17.130;2023-02-04T12:22:31;9.10;;;2.88;;
21731;SDS011;11028;51.156;17.130;2023-02-04T12:29:49;7.80;;;3.33;;
21731;SDS011;11028;51.156;17.130;2023-02-04T12:37:09;5.85;;;2.33;;
21731;SDS011;11028;51.156;17.130;2023-02-04T12:44:27;6.32;;;2.58;;
21731;SDS011;11028;51.156;17.130;2023-02-04T12:51:45;10.40;;;3.95;;
21731;SDS011;11028;51.156;17.130;2023-02-04T12:59:05;9.15;;;3.50;;
21731;SDS011;11028;51.156;17.130;2023-02-04T13:06:23;5.82;;;2.70;;
21731;SDS011;11028;51.156;17.130;2023-02-04T13:13:42;4.95;;;2.17;;
21731;SDS011;11028;51.156;17.130;2023-02-04T13:21:01;5.60;;;2.38;;
21731;SDS011;11028;51.156;17.130;2023-02-04T13:28:19;8.27;;;3.50;;
21731;SDS011;11028;51.156;17.130;2023-02-04T13:35:38;6.30;;;2.00;;
21731;SDS011;11028;51.156;17.130;2023-02-04T13:42:58;7.13;;;2.83;;
21731;SDS011;11028;51.156;17.130;2023-02-04T13:50:16;9.23;;;3.40;;
21731;SDS011;11028;51.156;17.130;2023-02-04T13:57:34;10.68;;;3.22;;
21731;SDS011;11028;51.156;17.130;2023-02-04T14:04:55;10.07;;;3.72;;
21731;SDS011;11028;51.156;17.130;2023-02-04T14:12:14;8.68;;;4.25;;
21731;SDS011;11028;51.156;17.130;2023-02-04T14:19:32;10.48;;;4.57;;
21731;SDS011;11028;51.156;17.130;2023-02-04T14:26:52;8.50;;;3.72;;
21731;SDS011;11028;51.156;17.130;2023-02-04T14:34:11;11.50;;;5.43;;
21731;SDS011;11028;51.156;17.130;2023-02-04T14:41:29;11.38;;;4.50;;
21731;SDS011;11028;51.156;17.130;2023-02-04T14:48:49;6.05;;;2.90;;
21731;SDS011;11028;51.156;17.130;2023-02-04T14:56:08;7.78;;;3.50;;
21731;SDS011;11028;51.156;17.130;2023-02-04T15:03:26;6.63;;;3.42;;
21731;SDS011;11028;51.156;17.130;2023-02-04T15:10:46;11.18;;;5.63;;
21731;SDS011;11028;51.156;17.130;2023-02-04T15:18:05;12.30;;;6.32;;
21731;SDS011;11028;51.156;17.130;2023-02-04T15:25:23;16.80;;;6.95;;
21731;SDS011;11028;51.156;17.130;2023-02-04T15:32:43;11.52;;;5.68;;
21731;SDS011;11028;51.156;17.130;2023-02-04T15:40:01;12.60;;;5.82;;
21731;SDS011;11028;51.156;17.130;2023-02-04T15:47:20;7.97;;;4.20;;
21731;SDS011;11028;51.156;17.130;2023-02-04T15:54:39;8.07;;;3.50;;
21731;SDS011;11028;51.156;17.130;2023-02-04T16:01:57;14.82;;;6.38;;
21731;SDS011;11028;51.156;17.130;2023-02-04T16:09:16;22.15;;;7.65;;
21731;SDS011;11028;51.156;17.130;2023-02-04T16:16:35;14.07;;;5.60;;
21731;SDS011;11028;51.156;17.130;2023-02-04T16:23:53;21.48;;;7.63;;
21731;SDS011;11028;51.156;17.130;2023-02-04T16:31:12;20.08;;;8.35;;
21731;SDS011;11028;51.156;17.130;2023-02-04T16:38:32;15.98;;;5.72;;
21731;SDS011;11028;51.156;17.130;2023-02-04T16:45:52;37.35;;;10.88;;
21731;SDS011;11028;51.156;17.130;2023-02-04T16:53:44;19.42;;;6.80;;
21731;SDS011;11028;51.156;17.130;2023-02-04T17:10:35;16.40;;;6.47;;
21731;SDS011;11028;51.156;17.130;2023-02-04T17:18:10;19.67;;;8.18;;
21731;SDS011;11028;51.156;17.130;2023-02-04T17:25:29;17.25;;;7.63;;
21731;SDS011;11028;51.156;17.130;2023-02-04T17:32:49;13.02;;;5.70;;
21731;SDS011;11028;51.156;17.130;2023-02-04T17:40:08;19.08;;;8.60;;
21731;SDS011;11028;51.156;17.130;2023-02-04T17:47:28;11.52;;;5.40;;
21731;SDS011;11028;51.156;17.130;2023-02-04T17:54:48;30.58;;;11.88;;
21731;SDS011;11028;51.156;17.130;2023-02-04T18:02:08;11.50;;;4.60;;
21731;SDS011;11028;51.156;17.130;2023-02-04T18:09:29;10.77;;;4.30;;
21731;SDS011;11028;51.156;17.130;2023-02-04T18:16:48;10.68;;;4.80;;
21731;SDS011;11028;51.156;17.130;2023-02-04T18:24:11;9.75;;;3.92;;
21731;SDS011;11028;51.156;17.130;2023-02-04T18:31:35;4.88;;;2.60;;
21731;SDS011;11028;51.156;17.130;2023-02-04T18:38:56;7.88;;;3.28;;
21731;SDS011;11028;51.156;17.130;2023-02-04T18:46:18;9.00;;;4.38;;
21731;SDS011;11028;51.156;17.130;2023-02-04T18:53:40;12.80;;;5.28;;
21731;SDS011;11028;51.156;17.130;2023-02-04T19:01:01;14.95;;;6.82;;
21731;SDS011;11028;51.156;17.130;2023-02-04T19:08:22;12.27;;;5.78;;
21731;SDS011;11028;51.156;17.130;2023-02-04T19:15:41;11.90;;;5.40;;
21731;SDS011;11028;51.156;17.130;2023-02-04T19:23:01;11.07;;;4.28;;
21731;SDS011;11028;51.156;17.130;2023-02-04T19:30:38;6.78;;;3.70;;
21731;SDS011;11028;51.156;17.130;2023-02-04T19:38:01;8.02;;;3.30;;
21731;SDS011;11028;51.156;17.130;2023-02-04T19:45:39;6.97;;;3.50;;
21731;SDS011;11028;51.156;17.130;2023-02-04T19:52:59;6.75;;;3.05;;
21731;SDS011;11028;51.156;17.130;2023-02-04T20:00:26;8.13;;;3.20;;
21731;SDS011;11028;51.156;17.130;2023-02-04T20:07:58;8.93;;;3.80;;
21731;SDS011;11028;51.156;17.130;2023-02-04T20:15:18;9.63;;;3.45;;
21731;SDS011;11028;51.156;17.130;2023-02-04T20:22:47;10.15;;;4.18;;
21731;SDS011;11028;51.156;17.130;2023-02-04T20:30:19;9.80;;;4.47;;
21731;SDS011;11028;51.156;17.130;2023-02-04T20:37:41;7.32;;;3.80;;
21731;SDS011;11028;51.156;17.130;2023-02-04T21:00:42;13.90;;;6.05;;
21731;SDS011;11028;51.156;17.130;2023-02-04T21:08:03;17.42;;;6.10;;
21731;SDS011;11028;51.156;17.130;2023-02-04T21:22:56;12.05;;;4.70;;
21731;SDS011;11028;51.156;17.130;2023-02-04T21:30:15;8.27;;;3.50;;
21731;SDS011;11028;51.156;17.130;2023-02-04T21:37:34;6.63;;;3.90;;
21731;SDS011;11028;51.156;17.130;2023-02-04T21:44:54;12.60;;;4.68;;
21731;SDS011;11028;51.156;17.130;2023-02-04T21:52:16;14.38;;;5.90;;
21731;SDS011;11028;51.156;17.130;2023-02-04T21:59:35;15.93;;;5.82;;
21731;SDS011;11028;51.156;17.130;2023-02-04T22:06:55;12.43;;;5.90;;
21731;SDS011;11028;51.156;17.130;2023-02-04T22:14:13;11.45;;;5.22;;
21731;SDS011;11028;51.156;17.130;2023-02-04T22:21:31;18.23;;;6.28;;
21731;SDS011;11028;51.156;17.130;2023-02-04T22:28:53;19.75;;;7.35;;
21731;SDS011;11028;51.156;17.130;2023-02-04T22:36:12;19.73;;;6.25;;
21731;SDS011;11028;51.156;17.130;2023-02-04T22:43:30;10.93;;;4.45;;
21731;SDS011;11028;51.156;17.130;2023-02-04T22:50:50;16.42;;;5.85;;
21731;SDS011;11028;51.156;17.130;2023-02-04T22:58:08;12.60;;;5.35;;
21731;SDS011;11028;51.156;17.130;2023-02-04T23:05:27;17.98;;;5.60;;
21731;SDS011;11028;51.156;17.130;2023-02-04T23:12:46;14.90;;;6.05;;
21731;SDS011;11028;51.156;17.130;2023-02-04T23:20:05;12.85;;;4.65;;
21731;SDS011;11028;51.156;17.130;2023-02-04T23:27:23;15.45;;;5.05;;
21731;SDS011;11028;51.156;17.130;2023-02-04T23:34:43;13.00;;;4.68;;
21731;SDS011;11028;51.156;17.130;2023-02-04T23:42:01;17.63;;;6.25;;
21731;SDS011;11028;51.156;17.130;2023-02-04T23:49:19;15.15;;;5.28;;
21731;SDS011;11028;51.156;17.130;2023-02-04T23:56:39;14.43;;;5.05;;
